Swansea, California
Current Conditions -  °F | °C
As of 2:56 PM on Wednesday 22 Oct 2014 (Local Time) from KBIH Reporting Station
Clear Clear  
Wind Chill: 26°   Ceiling: Unl
Heat Index: 26°   Visibility: 10mi
Dew Point: -6°   Wind: 9mph
Humidity: 12%   Direction: 170°S
Pressure: 30.04"   Gusts: NA
Location:  36.6126°N, 118.162°W
Report Text: KBIH 222156Z AUTO 17008KT 10SM CLR 26/M06 A3004 RMK AO2 SLP136 T02561056
Loading
Personal Weather Stations






























Interactive Weather Map
Tropical Storm Tracking
New forecast layout! Learn more

10-Day Weather Forecast

Advertisements
Track Severe Weather on mobile